Pagrindinis puslapis
METAR-TAF:

METAR-TAF

Oro uostai :

Izmiras, Turkija

platuma: 38-16N, ilguma: 027-09E, Aukštis: 125 m

Dabartinis oras

Ataskaita buvo paskelbta 32 minutes, ne 09:20 UTC
Vėjas 10 kt iš Šiaurės
Temperatūra 18°C
Drėgmė 45%
Slėgis 1019 hPa
Matomumas 10 km arba daugiau
nėra debesų žemiau 1500 m ir nėra kamuolinių lietaus debesų

METAR: LTBJ 270920Z 35010KT CAVOK 18/06 Q1019 NOSIG RMK RWY16 35009KT

Laikas: 12:52 (09:52 UTC)

Prognozė

Ataskaita buvo paskelbta 5 valandos ir 12 minutes, ne 04:40 UTC
Prognozė galioja nuo 27 metu 06 UTC su 28 metu 06 UTC
Vėjas 2 kt nuo kintamojo kryptimis
Matomumas 10 km arba daugiau
nėra debesų žemiau 1500 m ir nėra kamuolinių lietaus debesų
Tapsmas
nuo 27 metu 08 UTC su 27 metu 10 UTC
Vėjas 12 kt iš Šiaurės

TAF: LTBJ 270440Z 2706/2806 VRB02KT CAVOK BECMG 2708/2710 35012KT

Orai ataskaitas ir orų prognozės (METAR, TAF).

turimą stotys yra geltonos ir raudonos taškus žemėlapyje.

Perkelti pele per norėdami pamatyti stoties vardą.

Tada spustelėkite, norėdami matyti oro stebėjimo ir prognozės.

Norėdami pakeisti žemėlapį: spustelėkite ant žalios mygtukų su juodo kryžiaus žemyn,; žalią mygtuką su brūkšneliu, jei norite nutolinti; arba žalių rodyklių gretimoms žemėlapius.


METAR-TAF: